Time;durP1;ratioP1;P1;durP2;ratioP2;P2;SDS_P1;SDS_P2;PMS_P1;PMS_P2;Temp;Humidity;BMP_temperature;BMP_pressure;BME280_temperature;BME280_humidity;BME280_pressure;Samples;Min_cycle;Max_cycle;Signal;HPM_P1;HPM_P2
2022/07/05 00:01:21;;;;;;;5.50;3.50;;;13.70;99.90;;;;;;6120133;23;20016;-78
2022/07/05 00:07:31;;;;;;;5.65;3.80;;;13.80;99.90;;;;;;6141386;23;20013;-82
2022/07/05 00:10:03;;;;;;;6.25;3.80;;;13.70;99.90;;;;;;6131923;23;20009;-78
2022/07/05 00:13:13;;;;;;;;;;;;;;;;;;;;;
2022/07/05 00:16:41;;;;;;;7.15;4.10;;;13.60;99.90;;;;;;6182252;23;20013;-80
2022/07/05 00:19:41;;;;;;;5.55;3.90;;;13.60;99.90;;;;;;6120322;23;20018;-80
2022/07/05 00:22:55;;;;;;;;;;;;;;;;;;;;;
2022/07/05 00:26:07;;;;;;;;;;;;;;;;;;;;;
2022/07/05 00:29:35;;;;;;;7.30;4.32;;;13.40;99.90;;;;;;6154807;23;20018;-81
2022/07/05 00:33:04;;;;;;;6.78;4.03;;;13.40;99.90;;;;;;6131860;23;20095;-80
2022/07/05 00:36:29;;;;;;;5.80;4.28;;;13.40;99.90;;;;;;6050621;23;20013;-83
2022/07/05 00:40:10;;;;;;;7.70;3.70;;;13.40;99.90;;;;;;6107884;23;20092;-78
2022/07/05 00:43:45;;;;;;;5.72;3.88;;;13.40;99.90;;;;;;6124877;23;20033;-83
2022/07/05 00:46:51;;;;;;;8.85;3.67;;;13.50;99.90;;;;;;6192078;23;20082;-79
2022/07/05 00:50:01;;;;;;;5.32;3.20;;;13.40;99.90;;;;;;6191399;23;20188;-79
2022/07/05 00:52:46;;;;;;;14.90;4.15;;;13.30;99.90;;;;;;6166557;23;20561;-82
2022/07/05 00:55:36;;;;;;;6.10;3.50;;;13.30;99.90;;;;;;6189635;23;20008;-81
2022/07/05 00:58:49;;;;;;;;;;;13.30;99.90;;;;;;6193688;23;20088;-78
2022/07/05 01:05:21;;;;;;;5.20;3.17;;;13.10;99.90;;;;;;6186459;23;20009;-77
2022/07/05 01:08:47;;;;;;;6.63;3.50;;;13.10;99.90;;;;;;6157766;23;20614;-79
2022/07/05 01:15:05;;;;;;;5.65;3.67;;;13.10;99.90;;;;;;6187745;23;20521;-79
2022/07/05 01:18:15;;;;;;;4.88;3.05;;;12.90;99.90;;;;;;6163887;23;20367;-79
2022/07/05 01:25:21;;;;;;;4.90;3.30;;;12.90;99.90;;;;;;6193378;23;20375;-80
2022/07/05 01:28:39;;;;;;;7.75;3.75;;;12.90;99.90;;;;;;6101243;23;20041;-80
2022/07/05 01:35:49;;;;;;;;;;;;;;;;;;;;;
2022/07/05 01:39:26;;;;;;;;;;;;;;;;;;;;;
2022/07/05 01:42:50;;;;;;;5.22;3.40;;;12.80;99.90;;;;;;6065825;23;20073;-81
2022/07/05 01:50:23;;;;;;;5.07;3.60;;;12.80;99.90;;;;;;6137583;23;20044;-79
2022/07/05 01:54:03;;;;;;;5.97;3.53;;;12.70;99.90;;;;;;6018338;23;20022;-79
2022/07/05 01:57:23;;;;;;;5.57;3.40;;;12.70;99.90;;;;;;6049415;23;20014;-81
2022/07/05 02:04:08;;;;;;;6.45;3.53;;;12.60;99.90;;;;;;6137012;23;20013;-78
2022/07/05 02:07:28;;;;;;;;;;;;;;;;;;;;;
2022/07/05 02:11:00;;;;;;;4.95;3.10;;;12.80;99.90;;;;;;6166853;23;20016;-81
2022/07/05 02:14:05;;;;;;;8.07;3.60;;;12.70;99.90;;;;;;6198625;23;20035;-81
2022/07/05 02:17:40;;;;;;;4.50;3.15;;;12.80;99.90;;;;;;6217352;23;20353;-80
2022/07/05 02:28:34;;;;;;;5.93;2.92;;;12.80;99.90;;;;;;5980732;24;20347;-80
2022/07/05 02:31:44;;;;;;;5.55;3.08;;;12.80;99.90;;;;;;5995933;23;20015;-79
2022/07/05 02:34:48;;;;;;;6.20;2.83;;;12.80;99.90;;;;;;5983485;23;20102;-78
2022/07/05 02:38:20;;;;;;;4.35;2.83;;;12.60;99.90;;;;;;6009022;23;20108;-80
2022/07/05 02:41:42;;;;;;;5.03;2.60;;;12.90;99.90;;;;;;6059133;23;20014;-82
2022/07/05 02:45:02;;;;;;;3.95;2.30;;;12.90;99.90;;;;;;6103240;23;20467;-83
2022/07/05 02:48:14;;;;;;;;;;;;;;;;;;;;;
2022/07/05 02:55:48;;;;;;;5.15;2.67;;;13.00;99.90;;;;;;6124007;23;20080;-80
2022/07/05 02:59:08;;;;;;;3.78;2.40;;;13.20;99.90;;;;;;6037993;23;20054;-78
